Time;durP1;ratioP1;P1;durP2;ratioP2;P2;SDS_P1;SDS_P2;PMS_P1;PMS_P2;Temp;Humidity;BMP_temperature;BMP_pressure;BME280_temperature;BME280_humidity;BME280_pressure;Samples;Min_cycle;Max_cycle;Signal;HPM_P1;HPM_P2
2021/12/08 19:55:59;;;;;;;;;;;16.50;99.90;;;;;;5221309;22;3687;-52
2021/12/08 19:58:25;;;;;;;;;;;16.90;99.90;;;;;;4977645;28;1831;-50
2021/12/08 20:00:58;;;;;;;;;;;17.10;99.90;;;;;;4999037;28;855;-50
2021/12/08 20:03:27;;;;;;;;;;;17.30;99.90;;;;;;5015513;28;896;-50
2021/12/08 20:05:56;;;;;;;;;;;17.50;99.90;;;;;;5000616;28;1973;-50
2021/12/08 20:08:25;;;;;;;;;;;17.70;99.90;;;;;;5007341;28;1043;-50
2021/12/08 20:10:52;;;;;;;;;;;17.90;99.90;;;;;;5018801;28;876;-50
2021/12/08 20:13:20;;;;;;;;;;;18.20;99.90;;;;;;5016632;28;1016;-50
2021/12/08 20:15:47;;;;;;;;;;;18.30;99.90;;;;;;5003330;28;876;-51
2021/12/08 20:18:17;;;;;;;;;;;18.50;99.90;;;;;;4999515;28;1040;-50
2021/12/08 20:20:47;;;;;;;;;;;18.60;99.90;;;;;;4966222;28;1411;-50
2021/12/08 20:23:15;;;;;;;;;;;18.70;99.90;;;;;;5000875;28;877;-51
2021/12/08 20:25:44;;;;;;;;;;;18.90;99.90;;;;;;4997657;28;1961;-52
2021/12/08 20:28:10;;;;;;;;;;;19.10;99.90;;;;;;5009338;28;959;-50
2021/12/08 20:30:41;;;;;;;;;;;19.10;99.90;;;;;;5000352;28;834;-50
2021/12/08 20:33:07;;;;;;;;;;;19.20;99.90;;;;;;4998681;28;913;-53
2021/12/08 20:35:35;;;;;;;;;;;19.40;99.90;;;;;;4999647;28;1024;-55
2021/12/08 20:38:06;;;;;;;;;;;19.50;99.90;;;;;;5013986;28;983;-54
2021/12/08 20:40:34;;;;;;;;;;;19.50;99.90;;;;;;4999021;28;925;-56
2021/12/08 20:43:02;;;;;;;;;;;19.60;99.90;;;;;;5015104;28;813;-56
2021/12/08 20:45:32;;;;;;;;;;;19.60;99.90;;;;;;4999821;28;1898;-54
2021/12/08 20:48:00;;;;;;;;;;;19.40;99.90;;;;;;5014801;28;1011;-54
2021/12/08 20:50:29;;;;;;;;;;;18.80;99.90;;;;;;5015343;28;884;-55
2021/12/08 20:52:56;;;;;;;;;;;18.30;99.90;;;;;;5000039;28;876;-55
2021/12/08 20:55:25;;;;;;;;;;;17.90;99.90;;;;;;4997321;28;1057;-54
2021/12/08 20:57:54;;;;;;;;;;;17.80;99.90;;;;;;5002744;28;1366;-55
2021/12/08 21:00:29;;;;;;;;;;;17.60;99.90;;;;;;4994398;28;928;-55
2021/12/08 21:02:59;;;;;;;;;;;17.50;99.90;;;;;;4999634;28;840;-54
2021/12/08 21:05:29;;;;;;;;;;;17.40;99.90;;;;;;4999693;28;1887;-54
2021/12/08 21:07:56;;;;;;;;;;;17.40;99.90;;;;;;4999533;28;867;-54
2021/12/08 21:10:24;;;;;;;;;;;17.30;99.90;;;;;;4999728;28;801;-54
2021/12/08 21:12:51;;;;;;;;;;;17.30;99.90;;;;;;4997369;28;953;-54
2021/12/08 21:15:19;;;;;;;;;;;17.30;99.90;;;;;;4997336;28;1308;-54
2021/12/08 21:17:48;;;;;;;;;;;17.20;99.90;;;;;;4997607;28;973;-55
2021/12/08 21:20:16;;;;;;;;;;;17.20;99.90;;;;;;4996863;28;815;-54
2021/12/08 21:22:43;;;;;;;;;;;18.00;99.90;;;;;;4981242;28;1328;-54
2021/12/08 21:25:10;;;;;;;;;;;18.70;99.90;;;;;;4996949;28;1965;-54
2021/12/08 21:27:36;;;;;;;;;;;19.30;99.90;;;;;;4996667;28;925;-54
2021/12/08 21:30:04;;;;;;;;;;;19.40;99.90;;;;;;4997419;28;1198;-54
2021/12/08 21:32:32;;;;;;;;;;;19.40;99.90;;;;;;4997538;28;942;-55
2021/12/08 21:35:20;;;;;;;;;;;19.30;99.90;;;;;;4997341;28;815;-54
2021/12/08 21:37:48;;;;;;;;;;;19.30;99.90;;;;;;4983414;28;1180;-54
2021/12/08 21:40:15;;;;;;;;;;;19.40;99.90;;;;;;5015263;28;908;-54
2021/12/08 21:42:42;;;;;;;;;;;19.40;99.90;;;;;;5014640;28;914;-55
2021/12/08 21:45:08;;;;;;;;;;;19.40;99.90;;;;;;5016584;28;1898;-54
2021/12/08 21:47:36;;;;;;;;;;;19.30;99.90;;;;;;5016635;28;856;-54
2021/12/08 21:50:07;;;;;;;;;;;19.50;99.90;;;;;;4997228;28;945;-55
2021/12/08 21:52:34;;;;;;;;;;;19.50;99.90;;;;;;4997665;28;878;-54
2021/12/08 21:55:01;;;;;;;;;;;19.50;99.90;;;;;;5017090;28;945;-54
2021/12/08 21:57:30;;;;;;;;;;;19.50;99.90;;;;;;5004980;28;1064;-54
2021/12/08 21:59:57;;;;;;;;;;;19.50;99.90;;;;;;5014999;28;965;-54
2021/12/08 22:02:25;;;;;;;;;;;19.50;99.90;;;;;;5015288;28;888;-54
2021/12/08 22:04:53;;;;;;;;;;;19.50;99.90;;;;;;5022946;28;1969;-54
2021/12/08 22:07:21;;;;;;;;;;;19.60;99.90;;;;;;4997324;28;1172;-54
2021/12/08 22:09:48;;;;;;;;;;;19.70;99.90;;;;;;5028073;28;1270;-54
2021/12/08 22:12:15;;;;;;;;;;;19.60;99.90;;;;;;5014460;28;925;-54
2021/12/08 22:14:45;;;;;;;;;;;19.60;99.90;;;;;;5032030;28;884;-54
2021/12/08 22:17:12;;;;;;;;;;;19.60;99.90;;;;;;4997318;28;1568;-54
2021/12/08 22:19:40;;;;;;;;;;;19.60;99.90;;;;;;4979569;28;1001;-54
2021/12/08 22:22:06;;;;;;;;;;;19.50;99.90;;;;;;4998348;28;1294;-54
2021/12/08 22:24:33;;;;;;;;;;;19.50;99.90;;;;;;5015902;28;1911;-55
2021/12/08 22:26:59;;;;;;;;;;;19.50;99.90;;;;;;5008753;28;883;-54
2021/12/08 22:29:26;;;;;;;;;;;19.50;99.90;;;;;;4997237;28;873;-54
2021/12/08 22:31:55;;;;;;;;;;;19.50;99.90;;;;;;4994671;28;1012;-54
2021/12/08 22:34:21;;;;;;;;;;;19.50;99.90;;;;;;4994568;28;936;-54
2021/12/08 22:36:48;;;;;;;;;;;19.50;99.90;;;;;;4964656;28;1096;-55
2021/12/08 22:39:14;;;;;;;;;;;19.50;99.90;;;;;;4976769;28;823;-54
2021/12/08 22:41:43;;;;;;;;;;;19.50;99.90;;;;;;4976593;28;910;-54
2021/12/08 22:44:12;;;;;;;;;;;19.50;99.90;;;;;;4976457;28;1895;-55
2021/12/08 22:46:40;;;;;;;;;;;19.50;99.90;;;;;;4976567;28;1069;-55
2021/12/08 22:49:07;;;;;;;;;;;19.50;99.90;;;;;;4991908;28;961;-54
2021/12/08 22:51:37;;;;;;;;;;;19.50;99.90;;;;;;4976462;28;1085;-55
2021/12/08 22:54:04;;;;;;;;;;;19.50;99.90;;;;;;4983674;28;1078;-54
2021/12/08 22:56:31;;;;;;;;;;;19.50;99.90;;;;;;4986278;28;1086;-54
2021/12/08 22:58:57;;;;;;;;;;;19.50;99.90;;;;;;4988941;28;1178;-55
2021/12/08 23:01:27;;;;;;;;;;;19.50;99.90;;;;;;4978762;28;978;-54
2021/12/08 23:03:55;;;;;;;;;;;19.00;99.90;;;;;;4987256;28;1116;-54
2021/12/08 23:06:25;;;;;;;;;;;18.30;99.90;;;;;;4993592;28;1918;-54
2021/12/08 23:08:52;;;;;;;;;;;17.80;99.90;;;;;;4994094;28;906;-54
2021/12/08 23:11:23;;;;;;;;;;;17.40;99.90;;;;;;4994762;28;881;-54
2021/12/08 23:13:50;;;;;;;;;;;17.20;99.90;;;;;;4991005;28;1036;-54
2021/12/08 23:16:19;;;;;;;;;;;17.00;99.90;;;;;;4994829;28;911;-54
2021/12/08 23:18:47;;;;;;;;;;;16.80;99.90;;;;;;4996399;28;849;-54
2021/12/08 23:21:15;;;;;;;;;;;16.60;99.90;;;;;;4995184;28;963;-54
2021/12/08 23:23:42;;;;;;;;;;;16.50;99.90;;;;;;4991079;28;1041;-54
2021/12/08 23:26:11;;;;;;;;;;;16.30;99.90;;;;;;4990924;28;1907;-54
2021/12/08 23:28:37;;;;;;;;;;;16.20;99.90;;;;;;4991374;28;1297;-54
2021/12/08 23:31:03;;;;;;;;;;;16.10;99.90;;;;;;5013550;28;1081;-54
2021/12/08 23:33:33;;;;;;;;;;;16.00;99.90;;;;;;5012975;28;943;-54
2021/12/08 23:36:02;;;;;;;;;;;15.90;99.90;;;;;;4989621;28;837;-54
2021/12/08 23:38:47;;;;;;;;;;;15.80;99.90;;;;;;4989525;28;1057;-54
2021/12/08 23:41:16;;;;;;;;;;;15.80;99.90;;;;;;4994620;28;1148;-54
2021/12/08 23:43:43;;;;;;;;;;;15.70;99.90;;;;;;4995225;28;1298;-54
2021/12/08 23:46:13;;;;;;;;;;;15.60;99.90;;;;;;4995295;28;1906;-54
2021/12/08 23:48:40;;;;;;;;;;;15.50;99.90;;;;;;4995346;28;832;-54
2021/12/08 23:51:06;;;;;;;;;;;15.50;99.90;;;;;;4979076;28;1441;-54
2021/12/08 23:53:33;;;;;;;;;;;15.40;99.90;;;;;;4995392;28;909;-53
2021/12/08 23:56:03;;;;;;;;;;;15.30;99.90;;;;;;4994560;28;927;-54
2021/12/08 23:58:36;;;;;;;;;;;15.30;99.90;;;;;;4983696;28;1012;-53
